Time;durP1;ratioP1;P1;durP2;ratioP2;P2;SDS_P1;SDS_P2;PMS_P1;PMS_P2;Temp;Humidity;BMP_temperature;BMP_pressure;BME280_temperature;BME280_humidity;BME280_pressure;Samples;Min_cycle;Max_cycle;Signal;HPM_P1;HPM_P2
2022/10/26 00:01:12;;;;;;;8.90;3.83;;;;;;;10.83;73.85;100299.41;4472656;32;34399;-75
2022/10/26 00:03:41;;;;;;;6.78;3.72;;;;;;;11.20;72.53;100299.09;4472696;32;34462;-73
2022/10/26 00:06:11;;;;;;;5.62;3.85;;;;;;;11.29;71.82;100297.66;4461238;32;34315;-74
2022/10/26 00:08:39;;;;;;;6.00;3.30;;;;;;;11.28;71.89;100305.00;4465322;32;34826;-72
2022/10/26 00:11:07;;;;;;;5.90;4.12;;;;;;;11.34;71.64;100300.50;4457094;32;33249;-74
2022/10/26 00:13:35;;;;;;;6.57;4.10;;;;;;;11.03;72.80;100301.72;4456965;32;33864;-74
2022/10/26 00:16:12;;;;;;;6.43;3.80;;;;;;;10.97;73.12;100303.53;4442363;32;34276;-73
2022/10/26 00:18:39;;;;;;;6.72;3.70;;;;;;;11.24;72.07;100301.09;4457052;32;33739;-73
2022/10/26 00:21:08;;;;;;;4.53;3.12;;;;;;;11.27;71.89;100306.06;4465368;32;33531;-74
2022/10/26 00:23:36;;;;;;;5.07;3.70;;;;;;;11.59;71.01;100304.78;4470217;32;33896;-73
2022/10/26 00:26:04;;;;;;;5.47;3.50;;;;;;;11.61;70.75;100305.37;4469024;32;34289;-74
2022/10/26 00:28:32;;;;;;;5.45;3.53;;;;;;;11.23;71.95;100301.34;4469206;32;34603;-74
2022/10/26 00:31:01;;;;;;;5.07;3.40;;;;;;;11.63;70.92;100309.50;4448058;32;33097;-74
2022/10/26 00:33:29;;;;;;;4.80;3.05;;;;;;;11.42;71.67;100310.16;4453958;32;33957;-73
2022/10/26 00:35:57;;;;;;;6.43;3.60;;;;;;;11.38;72.64;100300.81;4453395;32;34192;-73
2022/10/26 00:38:24;;;;;;;4.40;2.83;;;;;;;11.26;73.59;100303.59;4439953;32;33724;-74
2022/10/26 00:40:52;;;;;;;5.60;3.30;;;;;;;11.27;73.81;100307.94;4439877;32;33240;-73
2022/10/26 00:43:25;;;;;;;4.93;3.15;;;;;;;11.39;73.60;100297.87;4464625;32;33711;-73
2022/10/26 00:45:54;;;;;;;8.13;2.97;;;;;;;11.48;73.17;100295.59;4469525;32;34371;-73
2022/10/26 00:48:34;;;;;;;5.47;3.42;;;;;;;11.39;73.62;100291.63;4469306;32;34918;-73
2022/10/26 00:51:05;;;;;;;5.10;3.15;;;;;;;11.40;73.51;100285.13;4469090;32;34128;-76
2022/10/26 00:53:33;;;;;;;4.65;3.08;;;;;;;11.03;74.75;100283.53;4455540;32;34139;-73
2022/10/26 00:56:01;;;;;;;6.28;3.37;;;;;;;11.14;74.23;100294.63;4454507;32;34951;-73
2022/10/26 00:58:28;;;;;;;6.12;3.10;;;;;;;10.92;74.54;100289.81;4439860;32;33882;-73
2022/10/26 01:00:56;;;;;;;5.37;3.10;;;;;;;11.50;72.47;100296.19;4439761;32;33344;-73
2022/10/26 01:03:24;;;;;;;5.32;2.92;;;;;;;11.01;73.98;100290.28;4453625;32;33938;-73
2022/10/26 01:05:52;;;;;;;3.78;2.58;;;;;;;11.31;73.16;100295.53;4465236;32;33873;-73
2022/10/26 01:08:20;;;;;;;4.37;2.90;;;;;;;11.38;72.30;100293.53;4455243;32;34662;-73
2022/10/26 01:10:47;;;;;;;4.90;3.10;;;;;;;11.01;73.04;100282.13;4469085;32;34195;-72
2022/10/26 01:13:16;;;;;;;5.32;3.30;;;;;;;11.56;70.74;100287.06;4455179;32;33409;-73
2022/10/26 01:16:08;;;;;;;5.60;3.12;;;;;;;11.18;71.93;100290.38;4458314;32;35659;-72
2022/10/26 01:18:59;;;;;;;5.60;3.70;;;;;;;11.11;72.28;100282.34;4453633;32;33919;-77
2022/10/26 01:21:32;;;;;;;5.30;3.67;;;;;;;11.45;70.71;100293.38;4418889;32;31892;-72
2022/10/26 01:24:08;;;;;;;5.50;4.90;;;;;;;10.89;72.53;100290.31;4453409;32;33509;-74
2022/10/26 01:27:05;;;;;;;8.50;5.20;;;;;;;10.84;72.83;100285.59;4455238;32;34019;-74
2022/10/26 01:29:45;;;;;;;5.60;4.10;;;;;;;11.18;71.20;100288.47;4454659;32;33880;-74
2022/10/26 01:32:23;;;;;;;7.25;4.00;;;;;;;10.81;72.86;100288.75;4467576;32;34418;-75
2022/10/26 01:34:58;;;;;;;5.65;4.22;;;;;;;10.58;73.18;100292.31;4453699;32;34509;-73
2022/10/26 01:37:29;;;;;;;4.97;3.97;;;;;;;10.77;72.46;100284.06;4454927;32;34560;-73
2022/10/26 01:40:09;;;;;;;9.10;4.82;;;;;;;10.82;72.07;100289.59;4443404;32;34247;-73
2022/10/26 01:42:40;;;;;;;6.82;5.30;;;;;;;10.84;71.89;100285.59;4439911;32;33421;-73
2022/10/26 01:45:09;;;;;;;8.20;5.87;;;;;;;10.92;71.56;100289.81;4439594;32;33862;-76
2022/10/26 01:47:37;;;;;;;10.55;7.22;;;;;;;10.95;71.38;100280.38;4439267;32;34175;-73
2022/10/26 01:50:06;;;;;;;9.02;6.78;;;;;;;10.62;71.94;100281.81;4453330;32;34804;-79
2022/10/26 01:52:33;;;;;;;8.55;7.22;;;;;;;10.64;72.15;100285.94;4453494;32;34268;-73
2022/10/26 01:55:02;;;;;;;11.68;8.60;;;;;;;10.79;71.40;100274.59;4468924;32;33988;-75
2022/10/26 01:57:32;;;;;;;9.65;8.13;;;;;;;11.07;70.59;100281.19;4468652;32;34091;-75
2022/10/26 02:00:09;;;;;;;11.20;7.85;;;;;;;11.15;69.69;100280.81;4454880;32;34045;-74
2022/10/26 02:02:44;;;;;;;9.80;8.07;;;;;;;11.09;69.93;100274.44;4453210;32;33593;-73
2022/10/26 02:05:21;;;;;;;9.40;8.40;;;;;;;10.44;72.06;100271.91;4439166;32;34670;-73
2022/10/26 02:08:19;;;;;;;11.93;10.60;;;;;;;10.57;72.06;100276.28;4453368;32;33651;-73
2022/10/26 02:11:05;;;;;;;12.23;10.77;;;;;;;10.55;72.58;100275.69;4439098;32;33993;-73
2022/10/26 02:13:38;;;;;;;11.98;9.30;;;;;;;10.57;72.28;100273.56;4453307;32;34289;-74
2022/10/26 02:16:29;;;;;;;11.05;9.30;;;;;;;10.73;71.40;100267.41;4450142;32;33769;-73
2022/10/26 02:18:59;;;;;;;13.62;10.30;;;;;;;11.02;69.96;100265.62;4468564;32;33957;-72
2022/10/26 02:21:42;;;;;;;12.60;10.60;;;;;;;10.65;71.52;100270.50;4467121;32;34826;-72
2022/10/26 02:24:11;;;;;;;12.00;10.70;;;;;;;10.69;70.91;100266.25;4454409;32;34211;-73
2022/10/26 02:26:40;;;;;;;13.30;11.57;;;;;;;10.88;70.32;100270.47;4451453;32;33742;-74
2022/10/26 02:29:11;;;;;;;13.27;10.65;;;;;;;10.88;69.96;100267.78;4452914;32;34207;-72
2022/10/26 02:31:39;;;;;;;11.70;10.40;;;;;;;10.74;70.41;100269.06;4442347;32;34169;-73
2022/10/26 02:34:10;;;;;;;8.48;7.53;;;;;;;10.33;71.69;100264.59;4437642;32;33753;-79
2022/10/26 02:36:42;;;;;;;9.65;6.95;;;;;;;10.43;71.58;100270.22;4437294;32;34591;-75
2022/10/26 02:39:11;;;;;;;7.25;5.45;;;;;;;10.71;70.19;100274.97;4436180;32;34312;-73
2022/10/26 02:41:40;;;;;;;6.40;4.50;;;;;;;10.70;69.96;100278.75;4436095;32;33951;-73
2022/10/26 02:44:13;;;;;;;6.57;5.10;;;;;;;10.69;69.77;100282.53;4448840;32;34306;-73
2022/10/26 02:46:42;;;;;;;6.47;4.05;;;;;;;10.14;72.00;100282.81;4451087;32;34762;-75
2022/10/26 02:49:09;;;;;;;5.32;3.67;;;;;;;10.65;70.55;100289.50;4452568;32;34700;-72
2022/10/26 02:52:01;;;;;;;6.18;3.92;;;;;;;10.23;71.94;100281.41;4451508;32;34132;-74
2022/10/26 02:54:35;;;;;;;5.28;3.75;;;;;;;10.52;71.61;100281.56;4450549;32;34396;-73
2022/10/26 02:57:16;;;;;;;5.93;3.60;;;;;;;10.20;72.21;100285.41;4437774;32;34571;-74
2022/10/26 02:59:46;;;;;;;6.37;3.60;;;;;;;10.50;71.65;100289.13;4433170;32;35209;-80
2022/10/26 03:02:15;;;;;;;5.20;3.60;;;;;;;10.15;72.45;100298.84;4436266;32;34491;-78
2022/10/26 03:04:43;;;;;;;5.00;3.55;;;;;;;10.49;71.25;100292.91;4436769;32;33580;-74
2022/10/26 03:07:10;;;;;;;6.72;3.95;;;;;;;10.63;70.59;100297.87;4438261;32;33906;-74
2022/10/26 03:09:38;;;;;;;5.32;3.67;;;;;;;10.85;69.47;100292.66;4437877;32;34149;-74
2022/10/26 03:12:05;;;;;;;5.18;3.40;;;;;;;10.70;69.65;100296.94;4438199;32;34860;-75
2022/10/26 03:14:33;;;;;;;6.35;3.92;;;;;;;10.07;72.10;100293.75;4438052;32;33473;-74
2022/10/26 03:17:00;;;;;;;5.68;4.22;;;;;;;9.98;72.53;100297.84;4438067;32;34565;-74
2022/10/26 03:19:27;;;;;;;5.15;3.60;;;;;;;9.94;72.77;100297.47;4449131;32;33923;-74
2022/10/26 03:21:55;;;;;;;5.72;4.00;;;;;;;10.45;71.47;100295.25;4453495;32;34296;-74
2022/10/26 03:24:22;;;;;;;4.78;3.40;;;;;;;10.38;71.07;100302.69;4453060;32;33672;-74
2022/10/26 03:26:49;;;;;;;5.00;3.65;;;;;;;10.56;70.50;100301.75;4463902;32;34633;-73
2022/10/26 03:29:17;;;;;;;6.35;3.40;;;;;;;10.60;70.30;100300.22;4469057;32;34166;-78
2022/10/26 03:31:44;;;;;;;5.35;3.60;;;;;;;10.62;69.98;100303.53;4454927;32;33852;-79
2022/10/26 03:34:12;;;;;;;6.28;3.83;;;;;;;10.62;69.82;100308.94;4453465;32;34312;-73
2022/10/26 03:36:40;;;;;;;5.35;3.53;;;;;;;10.00;72.12;100306.56;4453193;32;34070;-73
2022/10/26 03:39:07;;;;;;;5.75;3.87;;;;;;;9.79;73.16;100310.63;4463191;32;34031;-79
2022/10/26 03:41:35;;;;;;;5.55;3.58;;;;;;;9.87;73.01;100310.31;4457813;32;33721;-73
2022/10/26 03:44:02;;;;;;;6.25;3.62;;;;;;;10.43;71.42;100309.06;4468484;32;33500;-73
2022/10/26 03:46:29;;;;;;;7.05;3.65;;;;;;;10.37;71.76;100311.87;4468471;32;34660;-77
2022/10/26 03:48:57;;;;;;;5.28;3.40;;;;;;;10.33;71.56;100314.22;4468782;32;34115;-73
2022/10/26 03:51:24;;;;;;;5.37;3.83;;;;;;;10.23;72.36;100316.66;4466038;32;33760;-73
2022/10/26 03:53:52;;;;;;;4.87;3.53;;;;;;;10.48;71.78;100315.69;4452868;32;33503;-79
2022/10/26 03:56:20;;;;;;;5.00;3.40;;;;;;;10.64;71.05;100310.34;4453079;32;34657;-80
2022/10/26 03:58:47;;;;;;;4.78;3.28;;;;;;;10.52;70.99;100314.97;4453657;32;34218;-73
2022/10/26 04:01:15;;;;;;;5.28;3.50;;;;;;;10.61;71.21;100318.16;4455123;32;34852;-73
2022/10/26 04:03:42;;;;;;;5.28;3.30;;;;;;;10.59;71.55;100325.72;4455231;32;33304;-79
2022/10/26 04:06:10;;;;;;;4.80;3.10;;;;;;;10.20;72.85;100323.38;4455281;32;34033;-72
2022/10/26 04:08:37;;;;;;;7.00;3.58;;;;;;;10.49;72.10;100325.44;4455025;32;34144;-72
2022/10/26 04:11:05;;;;;;;5.03;3.50;;;;;;;10.13;73.57;100327.22;4455263;32;34939;-71
2022/10/26 04:13:32;;;;;;;4.60;3.45;;;;;;;10.22;73.54;100326.69;4455236;32;34566;-72
2022/10/26 04:15:59;;;;;;;5.35;3.55;;;;;;;10.32;73.16;100328.84;4454981;32;34644;-72
2022/10/26 04:18:27;;;;;;;5.57;3.78;;;;;;;10.70;71.95;100333.03;4441561;32;34468;-72
2022/10/26 04:20:54;;;;;;;5.60;3.95;;;;;;;10.70;71.82;100324.06;4454802;32;34618;-73
2022/10/26 04:23:22;;;;;;;5.68;4.07;;;;;;;10.39;72.57;100321.44;4454981;32;33355;-73
2022/10/26 04:25:54;;;;;;;5.95;3.87;;;;;;;10.62;72.13;100323.31;4454820;32;34006;-73
2022/10/26 04:28:22;;;;;;;7.40;4.28;;;;;;;10.54;72.78;100315.56;4454865;32;34320;-73
2022/10/26 04:30:49;;;;;;;6.47;3.92;;;;;;;10.75;73.12;100325.00;4454751;32;34852;-79
2022/10/26 04:33:16;;;;;;;6.80;4.50;;;;;;;10.37;74.53;100311.87;4455290;32;33463;-81
2022/10/26 04:35:45;;;;;;;7.43;3.80;;;;;;;10.59;75.06;100318.37;4454660;32;34737;-75
2022/10/26 04:38:12;;;;;;;6.72;4.15;;;;;;;10.59;75.53;100320.28;4454742;32;33958;-73
2022/10/26 04:40:40;;;;;;;5.25;4.00;;;;;;;10.68;75.64;100319.69;4454913;32;34616;-79
2022/10/26 04:43:07;;;;;;;7.30;4.80;;;;;;;10.59;77.55;100315.66;4440933;32;33212;-76
2022/10/26 04:45:35;;;;;;;8.73;5.25;;;;;;;10.41;77.97;100313.03;4455027;32;33949;-80
2022/10/26 04:48:11;;;;;;;7.18;4.35;;;;;;;10.38;78.77;100317.06;4454649;32;34982;-78
2022/10/26 04:50:39;;;;;;;8.07;4.60;;;;;;;10.34;79.64;100307.72;4440487;32;34830;-76
2022/10/26 04:53:08;;;;;;;9.48;6.10;;;;;;;10.99;77.46;100314.97;4454888;32;33600;-76
2022/10/26 04:55:36;;;;;;;8.55;5.07;;;;;;;11.07;78.40;100316.47;4455107;32;34021;-76
2022/10/26 04:58:03;;;;;;;8.48;4.87;;;;;;;11.28;78.13;100313.12;4454302;32;34945;-76
2022/10/26 05:00:32;;;;;;;7.87;4.80;;;;;;;10.78;80.44;100310.16;4454533;32;34792;-76
2022/10/26 05:03:04;;;;;;;6.90;4.60;;;;;;;10.79;81.39;100304.47;4454868;32;33297;-76
2022/10/26 05:05:33;;;;;;;7.20;4.55;;;;;;;10.79;81.28;100309.06;4454416;32;33998;-75
2022/10/26 05:08:00;;;;;;;7.03;4.95;;;;;;;10.99;80.19;100308.69;4440896;32;34985;-74
2022/10/26 05:10:28;;;;;;;8.63;5.32;;;;;;;11.16;79.15;100312.34;4454422;32;34842;-75
2022/10/26 05:12:57;;;;;;;7.90;5.30;;;;;;;10.86;80.34;100309.75;4454513;32;34193;-77
2022/10/26 05:15:25;;;;;;;7.72;5.20;;;;;;;11.27;78.45;100310.66;4428018;32;33826;-79
2022/10/26 05:17:57;;;;;;;7.53;5.07;;;;;;;11.14;78.13;100309.03;4454693;32;33712;-76
2022/10/26 05:20:29;;;;;;;8.77;5.15;;;;;;;10.90;79.03;100315.56;4454576;32;34738;-75
2022/10/26 05:22:58;;;;;;;6.75;4.68;;;;;;;11.04;77.46;100315.06;4454660;32;33549;-77
2022/10/26 05:25:27;;;;;;;11.18;7.50;;;;;;;11.15;77.43;100323.44;4454286;32;33773;-77
2022/10/26 05:27:59;;;;;;;11.02;7.30;;;;;;;11.16;77.20;100334.06;4452003;32;35006;-76
2022/10/26 05:30:27;;;;;;;11.18;6.65;;;;;;;10.11;81.41;100327.47;4454452;32;33915;-75
2022/10/26 05:32:56;;;;;;;9.50;6.37;;;;;;;10.61;79.75;100334.44;4454329;32;34293;-77
2022/10/26 05:35:24;;;;;;;10.07;6.15;;;;;;;10.78;78.52;100326.44;4454570;32;34893;-75
2022/10/26 05:37:52;;;;;;;10.27;6.03;;;;;;;10.71;78.98;100331.94;4454828;32;34143;-75
2022/10/26 05:40:20;;;;;;;7.78;4.93;;;;;;;10.45;80.52;100333.22;4440498;32;34290;-75
2022/10/26 05:42:49;;;;;;;7.68;4.68;;;;;;;10.33;81.05;100337.81;4454479;32;33729;-75
2022/10/26 05:45:17;;;;;;;6.65;4.65;;;;;;;10.57;80.26;100341.41;4454314;32;33994;-75
2022/10/26 05:47:45;;;;;;;7.65;5.05;;;;;;;10.64;79.72;100344.81;4454316;32;34286;-77
2022/10/26 05:50:13;;;;;;;7.35;5.15;;;;;;;10.33;81.33;100348.66;4454215;32;33999;-77
2022/10/26 05:52:42;;;;;;;7.25;4.43;;;;;;;10.90;78.27;100343.53;4453840;32;33785;-76
2022/10/26 05:55:11;;;;;;;11.00;6.87;;;;;;;11.16;76.73;100347.62;4454677;32;34802;-76
2022/10/26 05:57:39;;;;;;;8.32;5.75;;;;;;;11.06;77.39;100348.25;4454225;32;34973;-76
2022/10/26 06:00:15;;;;;;;10.98;6.82;;;;;;;11.29;76.07;100350.13;4454163;32;33980;-76
2022/10/26 06:02:52;;;;;;;9.90;7.03;;;;;;;11.28;75.39;100350.34;4440384;32;33691;-77
2022/10/26 06:05:26;;;;;;;10.50;6.75;;;;;;;11.55;73.83;100352.53;4454036;32;33990;-75
2022/10/26 06:07:54;;;;;;;11.27;7.35;;;;;;;11.73;72.25;100359.69;4439714;32;33786;-76
2022/10/26 06:10:21;;;;;;;10.48;6.72;;;;;;;11.24;74.18;100360.84;4454307;32;34808;-76
2022/10/26 06:12:49;;;;;;;11.35;7.32;;;;;;;11.17;74.66;100365.59;4454289;32;33591;-76
2022/10/26 06:15:21;;;;;;;12.48;7.20;;;;;;;11.19;74.92;100366.19;4454145;32;34041;-76
2022/10/26 06:18:20;;;;;;;13.35;6.87;;;;;;;11.38;74.59;100372.31;4454167;32;34077;-76
2022/10/26 06:21:03;;;;;;;9.27;6.93;;;;;;;11.53;73.69;100373.69;4432998;32;33820;-77
2022/10/26 06:23:37;;;;;;;8.20;6.30;;;;;;;11.85;71.74;100382.22;4440076;32;34200;-77
2022/10/26 06:26:17;;;;;;;11.48;6.40;;;;;;;11.99;72.20;100383.63;4453996;32;33922;-77
2022/10/26 06:28:54;;;;;;;13.00;7.18;;;;;;;12.37;72.11;100382.13;4453908;32;34249;-77
2022/10/26 06:31:22;;;;;;;9.05;6.18;;;;;;;12.67;71.80;100391.91;4434946;32;33996;-76
2022/10/26 06:33:51;;;;;;;8.93;6.43;;;;;;;13.17;70.33;100385.59;4439711;32;33098;-77
2022/10/26 06:36:23;;;;;;;9.10;5.93;;;;;;;13.68;69.29;100382.78;4440189;32;34040;-74
2022/10/26 06:38:54;;;;;;;7.97;5.93;;;;;;;14.28;66.05;100392.72;4453567;32;35024;-78
2022/10/26 06:41:21;;;;;;;9.52;5.75;;;;;;;14.84;63.82;100389.72;4439709;32;33927;-74
2022/10/26 06:43:49;;;;;;;8.52;5.90;;;;;;;14.95;63.30;100387.88;4440027;32;34587;-77
2022/10/26 06:46:40;;;;;;;7.72;5.55;;;;;;;14.96;63.73;100387.59;4453297;32;34148;-80
2022/10/26 06:49:36;;;;;;;9.32;5.62;;;;;;;15.23;63.75;100386.69;4453510;32;34186;-79
2022/10/26 06:52:20;;;;;;;6.22;4.82;;;;;;;14.87;64.52;100389.19;4439714;32;34066;-80
2022/10/26 06:54:53;;;;;;;8.13;5.43;;;;;;;14.88;64.71;100393.56;4439835;32;33611;-74
2022/10/26 06:57:23;;;;;;;13.88;6.57;;;;;;;15.06;64.77;100396.97;4453641;32;34837;-75
2022/10/26 06:59:59;;;;;;;8.02;5.90;;;;;;;15.02;65.34;100399.41;4451249;32;33734;-73
2022/10/26 07:02:27;;;;;;;8.50;6.07;;;;;;;15.54;63.92;100397.81;4439085;32;33821;-74
2022/10/26 07:04:54;;;;;;;11.05;5.75;;;;;;;15.98;62.61;100402.94;4453227;32;34344;-73
2022/10/26 07:07:24;;;;;;;9.32;4.97;;;;;;;16.17;62.29;100395.03;4449547;32;34919;-74
2022/10/26 07:09:52;;;;;;;6.68;4.85;;;;;;;16.53;61.07;100403.34;4452097;32;35058;-75
2022/10/26 07:12:19;;;;;;;7.40;4.90;;;;;;;16.92;59.81;100400.09;4452192;32;34435;-76
2022/10/26 07:14:47;;;;;;;8.27;5.82;;;;;;;16.97;59.64;100389.91;4465240;32;34351;-76
2022/10/26 07:17:15;;;;;;;8.43;5.00;;;;;;;16.96;59.29;100399.25;4467394;32;34725;-78
2022/10/26 07:19:43;;;;;;;8.52;5.43;;;;;;;16.89;60.08;100412.44;4466811;32;34948;-74
2022/10/26 07:22:11;;;;;;;8.45;5.80;;;;;;;16.71;60.94;100401.97;4467299;32;33691;-74
2022/10/26 07:24:39;;;;;;;11.23;6.30;;;;;;;16.46;62.47;100405.50;4467735;32;33472;-74
2022/10/26 07:27:06;;;;;;;8.57;6.10;;;;;;;16.52;62.78;100410.75;4467527;32;34085;-73
2022/10/26 07:29:34;;;;;;;9.82;6.45;;;;;;;16.91;60.31;100410.25;4452404;32;34978;-74
2022/10/26 07:32:01;;;;;;;9.25;6.40;;;;;;;16.84;60.72;100415.16;4449506;32;33958;-76
2022/10/26 07:34:29;;;;;;;9.38;6.30;;;;;;;16.88;60.48;100412.69;4469518;32;33622;-76
2022/10/26 07:36:58;;;;;;;14.25;11.25;;;;;;;16.47;62.01;100416.19;4469101;32;33929;-74
2022/10/26 07:39:26;;;;;;;10.75;7.28;;;;;;;16.57;61.84;100405.25;4442066;32;34104;-76
2022/10/26 07:41:54;;;;;;;10.27;6.82;;;;;;;16.35;62.31;100410.16;4454139;32;33965;-76
2022/10/26 07:44:21;;;;;;;9.95;6.90;;;;;;;16.20;63.60;100411.78;4453740;32;33412;-75
2022/10/26 07:46:51;;;;;;;10.90;7.37;;;;;;;16.13;64.71;100408.47;4454207;32;34726;-73
2022/10/26 07:49:19;;;;;;;11.85;7.62;;;;;;;16.55;63.36;100412.09;4453441;32;34391;-78
2022/10/26 07:51:49;;;;;;;11.85;7.43;;;;;;;16.52;64.51;100413.47;4453147;32;34469;-78
2022/10/26 07:54:16;;;;;;;11.52;8.05;;;;;;;16.76;63.57;100408.28;4453709;32;34164;-77
2022/10/26 07:56:43;;;;;;;11.98;8.13;;;;;;;16.79;63.46;100407.72;4465522;32;33655;-73
2022/10/26 07:59:12;;;;;;;12.77;8.82;;;;;;;17.22;61.91;100401.97;4469187;32;34767;-78
2022/10/26 08:01:39;;;;;;;15.73;9.88;;;;;;;16.80;62.22;100409.41;4456570;32;34093;-75
2022/10/26 08:04:07;;;;;;;14.77;9.00;;;;;;;16.33;64.99;100395.91;4453577;32;33919;-72
2022/10/26 08:06:35;;;;;;;14.90;8.85;;;;;;;15.96;66.33;100403.22;4453142;32;33761;-74
2022/10/26 08:09:02;;;;;;;14.10;8.95;;;;;;;15.98;65.98;100406.50;4453320;32;34157;-74
2022/10/26 08:11:30;;;;;;;14.18;9.32;;;;;;;16.33;64.51;100407.69;4449653;32;34065;-73
2022/10/26 08:13:57;;;;;;;12.52;9.00;;;;;;;16.15;65.14;100409.00;4469218;32;33501;-75
2022/10/26 08:16:25;;;;;;;14.75;9.27;;;;;;;15.93;66.47;100411.13;4468464;32;34105;-76
2022/10/26 08:18:52;;;;;;;11.95;8.82;;;;;;;16.18;66.13;100407.66;4469437;32;33963;-74
2022/10/26 08:21:20;;;;;;;13.25;8.77;;;;;;;15.34;69.59;100412.19;4467179;32;34644;-73
2022/10/26 08:24:05;;;;;;;10.25;6.87;;;;;;;15.83;68.65;100420.13;4469227;32;33759;-73
2022/10/26 08:26:33;;;;;;;12.30;6.87;;;;;;;16.36;67.77;100425.50;4461598;32;34846;-74
2022/10/26 08:29:00;;;;;;;9.88;6.85;;;;;;;17.19;63.75;100424.44;4438000;32;34228;-72
2022/10/26 08:31:28;;;;;;;11.18;7.18;;;;;;;17.58;61.66;100419.16;4448144;32;33999;-73
2022/10/26 08:33:56;;;;;;;11.00;7.47;;;;;;;17.83;60.17;100418.28;4453418;32;33643;-71
2022/10/26 08:36:24;;;;;;;11.30;7.25;;;;;;;17.66;60.34;100419.69;4452360;32;33724;-74
2022/10/26 08:38:52;;;;;;;12.05;8.43;;;;;;;18.01;59.78;100416.84;4454725;32;34206;-74
2022/10/26 08:41:35;;;;;;;13.98;8.02;;;;;;;18.04;60.20;100420.94;4457721;32;33807;-76
2022/10/26 08:44:12;;;;;;;15.82;8.63;;;;;;;17.89;60.26;100418.25;4467497;32;33377;-75
2022/10/26 08:46:44;;;;;;;14.70;8.43;;;;;;;18.15;59.72;100422.53;4451382;32;33621;-72
2022/10/26 08:49:23;;;;;;;17.20;8.80;;;;;;;18.15;59.25;100430.75;4441607;32;34489;-73
2022/10/26 08:51:54;;;;;;;13.18;7.47;;;;;;;17.54;61.16;100431.78;4438751;32;34959;-73
2022/10/26 08:54:32;;;;;;;13.62;7.28;;;;;;;17.88;60.74;100444.06;4425094;32;33697;-77
2022/10/26 08:57:02;;;;;;;17.77;8.80;;;;;;;17.81;62.33;100442.41;4424770;32;33947;-73
2022/10/26 08:59:34;;;;;;;18.15;9.50;;;;;;;17.56;64.16;100443.31;4437503;32;34938;-72
2022/10/26 09:02:02;;;;;;;18.02;9.00;;;;;;;17.49;65.25;100436.47;4437974;32;33887;-75
2022/10/26 09:04:30;;;;;;;23.35;10.52;;;;;;;17.83;63.66;100437.47;4437602;32;33256;-77
2022/10/26 09:07:07;;;;;;;19.05;9.48;;;;;;;17.22;65.73;100443.09;4438724;32;33828;-76
2022/10/26 09:09:49;;;;;;;18.20;8.07;;;;;;;17.28;66.31;100436.53;4438978;32;34998;-77
2022/10/26 09:12:38;;;;;;;17.87;7.53;;;;;;;17.09;67.27;100435.44;4439033;32;34460;-74
2022/10/26 09:15:41;;;;;;;17.90;7.47;;;;;;;17.43;66.17;100443.91;4445359;32;33840;-74
2022/10/26 09:18:11;;;;;;;13.75;6.53;;;;;;;17.72;64.88;100435.84;4388878;32;33772;-74
2022/10/26 09:20:53;;;;;;;13.27;6.95;;;;;;;17.71;65.10;100439.72;4454629;32;34043;-76
2022/10/26 09:23:28;;;;;;;13.57;6.62;;;;;;;17.86;64.99;100438.88;4440462;32;34661;-75
2022/10/26 09:26:01;;;;;;;15.18;6.80;;;;;;;17.89;65.77;100448.47;4440428;32;34390;-73
2022/10/26 09:28:32;;;;;;;12.52;6.57;;;;;;;18.45;63.54;100451.75;4454389;32;33924;-76
2022/10/26 09:31:01;;;;;;;11.25;5.70;;;;;;;18.34;63.87;100452.09;4440697;32;35042;-76
2022/10/26 09:33:30;;;;;;;11.68;5.78;;;;;;;17.99;64.62;100462.12;4440496;32;33655;-76
2022/10/26 09:36:03;;;;;;;13.48;6.18;;;;;;;18.35;63.59;100456.47;4454379;32;33473;-74
2022/10/26 09:38:33;;;;;;;13.05;6.47;;;;;;;18.31;63.13;100458.13;4440553;32;33825;-77
2022/10/26 09:41:19;;;;;;;17.27;8.00;;;;;;;18.70;62.80;100458.16;4440566;32;34166;-77
2022/10/26 09:44:17;;;;;;;17.52;7.82;;;;;;;18.87;60.86;100459.75;4454372;32;34678;-74
2022/10/26 09:46:48;;;;;;;16.50;7.57;;;;;;;18.58;61.95;100454.97;4444219;32;32467;-75
2022/10/26 09:49:17;;;;;;;16.50;8.00;;;;;;;18.49;62.12;100462.16;4440545;32;34812;-79
2022/10/26 09:51:45;;;;;;;17.83;8.30;;;;;;;17.91;64.15;100460.00;4443625;32;33755;-81
2022/10/26 09:54:16;;;;;;;19.02;8.85;;;;;;;17.10;66.53;100459.00;4469078;32;34142;-74
2022/10/26 09:56:46;;;;;;;15.55;7.72;;;;;;;17.62;65.82;100468.81;4453074;32;34140;-76
2022/10/26 09:59:15;;;;;;;16.83;8.52;;;;;;;17.40;66.08;100466.38;4440224;32;34977;-77
2022/10/26 10:01:42;;;;;;;17.08;9.32;;;;;;;18.09;63.58;100470.31;4440322;32;34944;-72
2022/10/26 10:04:15;;;;;;;19.10;9.70;;;;;;;17.24;66.12;100471.06;4440201;32;34228;-73
2022/10/26 10:06:43;;;;;;;19.00;9.70;;;;;;;17.59;65.64;100466.63;4454596;32;33951;-73
2022/10/26 10:09:12;;;;;;;17.58;8.98;;;;;;;17.48;65.47;100473.25;4440335;32;34952;-75
2022/10/26 10:11:43;;;;;;;20.23;10.10;;;;;;;17.46;65.57;100472.69;4440143;32;34213;-80
2022/10/26 10:14:16;;;;;;;21.83;11.07;;;;;;;17.37;65.89;100467.75;4440307;32;34547;-77
2022/10/26 10:16:55;;;;;;;26.03;12.03;;;;;;;17.30;65.96;100475.47;4451970;32;33622;-79
2022/10/26 10:19:25;;;;;;;22.10;12.15;;;;;;;17.02;67.41;100474.09;4438222;32;33531;-75
2022/10/26 10:21:55;;;;;;;26.75;12.00;;;;;;;16.74;68.43;100470.75;4453905;32;34492;-76
2022/10/26 10:24:31;;;;;;;26.60;11.85;;;;;;;16.65;69.48;100474.28;4454205;32;33897;-76
2022/10/26 10:27:02;;;;;;;26.65;12.88;;;;;;;16.70;68.96;100474.31;4439765;32;32982;-76
2022/10/26 10:29:32;;;;;;;27.50;12.73;;;;;;;16.26;71.04;100469.25;4453490;32;34735;-76
2022/10/26 10:32:01;;;;;;;25.65;12.18;;;;;;;16.89;68.55;100469.12;4453592;32;33982;-77
2022/10/26 10:34:30;;;;;;;25.23;11.90;;;;;;;16.66;69.25;100457.59;4454315;32;34034;-75
2022/10/26 10:36:59;;;;;;;24.35;12.30;;;;;;;17.15;67.96;100468.06;4439644;32;33555;-78
2022/10/26 10:39:38;;;;;;;22.65;11.65;;;;;;;17.32;66.81;100469.69;4439728;32;33803;-88
2022/10/26 10:42:19;;;;;;;24.25;12.35;;;;;;;17.38;66.85;100469.41;4453553;32;34852;-74
2022/10/26 10:44:51;;;;;;;23.40;11.45;;;;;;;17.43;66.60;100465.84;4453825;32;33953;-75
2022/10/26 10:47:22;;;;;;;23.87;12.32;;;;;;;17.26;67.62;100465.31;4438555;32;33301;-75
2022/10/26 10:49:57;;;;;;;20.67;10.88;;;;;;;17.35;67.83;100469.16;4453499;32;34859;-83
2022/10/26 10:52:27;;;;;;;21.08;11.43;;;;;;;17.08;68.55;100462.00;4440105;32;34316;-77
2022/10/26 10:55:19;;;;;;;20.88;10.70;;;;;;;17.48;68.44;100463.09;4453321;32;34246;-77
2022/10/26 10:58:02;;;;;;;21.37;10.98;;;;;;;17.67;67.27;100460.56;4432120;32;34213;-76
2022/10/26 11:00:35;;;;;;;18.37;9.75;;;;;;;18.02;66.04;100462.41;4453510;32;34896;-76
2022/10/26 11:03:21;;;;;;;17.65;8.82;;;;;;;17.20;68.13;100450.78;4439017;32;34159;-75
2022/10/26 11:06:19;;;;;;;17.70;9.93;;;;;;;17.92;65.30;100459.69;4453402;32;33975;-75
2022/10/26 11:08:51;;;;;;;14.45;8.73;;;;;;;17.91;66.33;100458.06;4462496;32;34190;-77
2022/10/26 11:11:26;;;;;;;17.85;9.43;;;;;;;18.26;64.54;100450.75;4438443;32;33958;-77
2022/10/26 11:13:59;;;;;;;17.73;9.05;;;;;;;18.12;65.30;100450.56;4436729;32;33547;-77
2022/10/26 11:16:32;;;;;;;17.48;8.73;;;;;;;18.38;64.44;100448.50;4422302;32;33574;-76
2022/10/26 11:19:05;;;;;;;16.62;8.93;;;;;;;18.28;64.68;100448.53;4435562;32;33528;-77
2022/10/26 11:21:36;;;;;;;14.18;8.38;;;;;;;18.53;63.62;100439.34;4422036;32;33942;-79
2022/10/26 11:24:11;;;;;;;17.27;9.05;;;;;;;18.45;64.76;100434.44;4437843;32;34616;-78
2022/10/26 11:26:51;;;;;;;15.23;8.95;;;;;;;18.70;63.91;100447.16;4437229;32;33757;-77
2022/10/26 11:29:29;;;;;;;14.65;8.30;;;;;;;18.26;64.69;100442.50;4423991;32;33340;-77
2022/10/26 11:32:22;;;;;;;15.35;8.77;;;;;;;18.50;64.40;100441.81;4425102;32;33932;-73
2022/10/26 11:34:52;;;;;;;15.75;8.68;;;;;;;18.67;63.28;100428.50;4453018;32;34251;-79
2022/10/26 11:37:29;;;;;;;16.30;9.20;;;;;;;18.63;64.59;100433.75;4453003;32;33870;-74
2022/10/26 11:40:12;;;;;;;16.08;9.05;;;;;;;19.11;62.58;100429.56;4438758;32;33512;-76
2022/10/26 11:42:46;;;;;;;20.05;9.52;;;;;;;19.35;61.22;100432.34;4439108;32;33997;-74